Pagrindinis puslapis
METAR-TAF:

METAR-TAF

Oro uostai :

Vamdrup

Koldingas, Danija

platuma: 55-26N, ilguma: 009-20E, Aukštis: 44 m

Dabartinis oras

Ataskaita buvo paskelbta 39 minutes, ne 01:50 UTC
Vėjas 2 kt iš Pietų/Pietryčių
Temperatūra 3°C
Drėgmė 100%
Slėgis 1027 hPa

METAR: EKVD 190150Z AUTO 16002KT //// ///////// 03/03 Q1027

Laikas: 04:29 (02:29 UTC)

Prognozė

Ataskaita buvo paskelbta 14 valandos ir 36 minutes, ne 11:53 UTC
Prognozė galioja nuo 18 metu 12 UTC su 18 metu 16 UTC
Vėjas 5 kt iš Vakarų/Šiaurės Vakarų
Matomumas 10 km arba daugiau
nėra debesų žemiau 1500 m ir nėra kamuolinių lietaus debesų

TAF: EKVD 181153Z 1812/1816 30005KT CAVOK

Orai ataskaitas ir orų prognozės (METAR, TAF).

turimą stotys yra geltonos ir raudonos taškus žemėlapyje.

Perkelti pele per norėdami pamatyti stoties vardą.

Tada spustelėkite, norėdami matyti oro stebėjimo ir prognozės.

Norėdami pakeisti žemėlapį: spustelėkite ant žalios mygtukų su juodo kryžiaus žemyn,; žalią mygtuką su brūkšneliu, jei norite nutolinti; arba žalių rodyklių gretimoms žemėlapius.


METAR-TAF: